VLG45XH LIRF-LEBL
Flight info
| Callsign | VLG45XH |
|---|---|
| Flight time | 1h 30m |
| Altitude | 37000 |
| Route | ESINO DCT ABIDU DCT EPIKU/N0443F360 DCT GINOX DCT KIFMI DCT ELVOP DCT MUREN DCT CHELY DCT VERSO |
| Aircraft | A320/M-SDE3FGHIRWY/LB1 |
Departure
| Time | 2026-05-04 13:07 |
|---|---|
| Airport | Rome–Fiumicino Leonardo da Vinci International Airport (LIRF) |
Arrival
| Time | 2026-05-04 14:38 |
|---|---|
| Airport | Josep Tarradellas Barcelona-El Prat Airport (LEBL) |
| Time | Latitude | Longitude | Altitude | Speed | Heading |
|---|---|---|---|---|---|
| 2026-05-04 12:35 | 41.79631 | 12.25778 | 15 ft | 0 kts | 115° |
| 2026-05-04 12:55 | 41.79634 | 12.25769 | 15 ft | 4 kts | 114° |
| 2026-05-04 12:55 | 41.79643 | 12.25735 | 16 ft | 4 kts | 97° |
| 2026-05-04 12:55 | 41.79641 | 12.25703 | 16 ft | 4 kts | 45° |
| 2026-05-04 12:55 | 41.79634 | 12.25695 | 19 ft | 0 kts | 26° |
| 2026-05-04 13:02 | 41.79635 | 12.25696 | 15 ft | 1 kts | 26° |
| 2026-05-04 13:02 | 41.79734 | 12.25760 | 15 ft | 24 kts | 26° |
| 2026-05-04 13:03 | 41.79869 | 12.25822 | 15 ft | 17 kts | 11° |
| 2026-05-04 13:03 | 41.79967 | 12.25880 | 16 ft | 15 kts | 25° |
| 2026-05-04 13:03 | 41.80057 | 12.25935 | 15 ft | 13 kts | 24° |
| 2026-05-04 13:03 | 41.80138 | 12.25984 | 16 ft | 12 kts | 24° |
| 2026-05-04 13:04 | 41.80212 | 12.26029 | 15 ft | 13 kts | 25° |
| 2026-05-04 13:04 | 41.80335 | 12.26105 | 15 ft | 24 kts | 24° |
| 2026-05-04 13:04 | 41.80493 | 12.26195 | 15 ft | 24 kts | 34° |
| 2026-05-04 13:04 | 41.80571 | 12.26389 | 15 ft | 24 kts | 69° |
| 2026-05-04 13:05 | 41.80629 | 12.26607 | 15 ft | 25 kts | 71° |
| 2026-05-04 13:05 | 41.80693 | 12.26834 | 16 ft | 27 kts | 70° |
| 2026-05-04 13:05 | 41.80776 | 12.27037 | 15 ft | 22 kts | 22° |
| 2026-05-04 13:05 | 41.80874 | 12.27010 | 15 ft | 0 kts | 338° |
| 2026-05-04 13:06 | 41.80884 | 12.27005 | 15 ft | 9 kts | 338° |
| 2026-05-04 13:06 | 41.80954 | 12.26919 | 13 ft | 15 kts | 264° |
| 2026-05-04 13:06 | 41.80946 | 12.26885 | 14 ft | 0 kts | 251° |
| 2026-05-04 13:07 | 41.80898 | 12.26708 | 14 ft | 56 kts | 249° |
| 2026-05-04 13:07 | 41.80682 | 12.25938 | 18 ft | 118 kts | 250° |
| 2026-05-04 13:07 | 41.80327 | 12.24696 | 45 ft | 163 kts | 254° |
| 2026-05-04 13:07 | 41.79930 | 12.23296 | 716 ft | 160 kts | 249° |
| 2026-05-04 13:08 | 41.79579 | 12.21880 | 1457 ft | 161 kts | 246° |
| 2026-05-04 13:08 | 41.79279 | 12.20407 | 2002 ft | 174 kts | 263° |
| 2026-05-04 13:08 | 41.79233 | 12.18683 | 2317 ft | 196 kts | 265° |
| 2026-05-04 13:08 | 41.79185 | 12.16786 | 2740 ft | 209 kts | 262° |
| 2026-05-04 13:09 | 41.78781 | 12.14932 | 3324 ft | 208 kts | 236° |
| 2026-05-04 13:09 | 41.77850 | 12.13484 | 3872 ft | 207 kts | 220° |
| 2026-05-04 13:09 | 41.76812 | 12.12185 | 4295 ft | 207 kts | 220° |
| 2026-05-04 13:09 | 41.75759 | 12.10880 | 4971 ft | 206 kts | 220° |
| 2026-05-04 13:10 | 41.74702 | 12.09571 | 5577 ft | 208 kts | 220° |
| 2026-05-04 13:10 | 41.73633 | 12.08248 | 6161 ft | 210 kts | 220° |
| 2026-05-04 13:10 | 41.72555 | 12.06913 | 6767 ft | 211 kts | 220° |
| 2026-05-04 13:10 | 41.71463 | 12.05583 | 7329 ft | 213 kts | 216° |
| 2026-05-04 13:11 | 41.70178 | 12.04558 | 7735 ft | 222 kts | 208° |
| 2026-05-04 13:11 | 41.68789 | 12.03487 | 8026 ft | 241 kts | 210° |
| 2026-05-04 13:11 | 41.67290 | 12.02286 | 8401 ft | 262 kts | 210° |
| 2026-05-04 13:11 | 41.65694 | 12.00998 | 9063 ft | 271 kts | 211° |
| 2026-05-04 13:12 | 41.64068 | 11.99685 | 9870 ft | 275 kts | 211° |
| 2026-05-04 13:12 | 41.62399 | 11.98343 | 10458 ft | 288 kts | 211° |
| 2026-05-04 13:12 | 41.60614 | 11.96918 | 10703 ft | 311 kts | 211° |
| 2026-05-04 13:12 | 41.58715 | 11.95414 | 11271 ft | 321 kts | 211° |
| 2026-05-04 13:13 | 41.56778 | 11.93886 | 11977 ft | 325 kts | 212° |
| 2026-05-04 13:13 | 41.54821 | 11.92343 | 12707 ft | 329 kts | 212° |
| 2026-05-04 13:13 | 41.53509 | 11.91307 | 13182 ft | 332 kts | 212° |
| 2026-05-04 13:13 | 41.51507 | 11.89728 | 13896 ft | 336 kts | 213° |
| 2026-05-04 13:14 | 41.49481 | 11.88135 | 14516 ft | 340 kts | 213° |
| 2026-05-04 13:14 | 41.47437 | 11.86529 | 15130 ft | 343 kts | 213° |
| 2026-05-04 13:14 | 41.45372 | 11.84906 | 15755 ft | 346 kts | 213° |
| 2026-05-04 13:14 | 41.43285 | 11.83263 | 16374 ft | 350 kts | 213° |
| 2026-05-04 13:15 | 41.41205 | 11.81565 | 16991 ft | 352 kts | 218° |
| 2026-05-04 13:15 | 41.39374 | 11.79417 | 17605 ft | 352 kts | 230° |
| 2026-05-04 13:15 | 41.37926 | 11.76789 | 18214 ft | 352 kts | 242° |
| 2026-05-04 13:15 | 41.36923 | 11.73806 | 18763 ft | 354 kts | 251° |
| 2026-05-04 13:16 | 41.36093 | 11.70713 | 19286 ft | 357 kts | 251° |
| 2026-05-04 13:16 | 41.35249 | 11.67589 | 19802 ft | 360 kts | 251° |
| 2026-05-04 13:16 | 41.34409 | 11.64490 | 20307 ft | 363 kts | 251° |
| 2026-05-04 13:16 | 41.33547 | 11.61313 | 20818 ft | 366 kts | 251° |
| 2026-05-04 13:17 | 41.32677 | 11.58120 | 21311 ft | 369 kts | 251° |
| 2026-05-04 13:17 | 41.31796 | 11.54896 | 21793 ft | 372 kts | 251° |
| 2026-05-04 13:17 | 41.30906 | 11.51648 | 22270 ft | 375 kts | 251° |
| 2026-05-04 13:17 | 41.30010 | 11.48368 | 22746 ft | 379 kts | 252° |
| 2026-05-04 13:18 | 41.29106 | 11.45062 | 23213 ft | 382 kts | 252° |
| 2026-05-04 13:18 | 41.28194 | 11.41737 | 23672 ft | 385 kts | 252° |
| 2026-05-04 13:18 | 41.27273 | 11.38378 | 24083 ft | 387 kts | 252° |
| 2026-05-04 13:18 | 41.26350 | 11.35019 | 24519 ft | 387 kts | 252° |
| 2026-05-04 13:19 | 41.25423 | 11.31653 | 24983 ft | 387 kts | 252° |
| 2026-05-04 13:19 | 41.24496 | 11.28292 | 25446 ft | 387 kts | 252° |
| 2026-05-04 13:19 | 41.23567 | 11.24931 | 25890 ft | 387 kts | 252° |
| 2026-05-04 13:19 | 41.22638 | 11.21572 | 26343 ft | 387 kts | 252° |
| 2026-05-04 13:20 | 41.21709 | 11.18220 | 26781 ft | 387 kts | 253° |
| 2026-05-04 13:20 | 41.20779 | 11.14866 | 27221 ft | 387 kts | 253° |
| 2026-05-04 13:20 | 41.19850 | 11.11508 | 27659 ft | 387 kts | 253° |
| 2026-05-04 13:20 | 41.18919 | 11.08152 | 28099 ft | 387 kts | 253° |
| 2026-05-04 13:21 | 41.17986 | 11.04799 | 28526 ft | 387 kts | 253° |
| 2026-05-04 13:21 | 41.17050 | 11.01447 | 28946 ft | 388 kts | 253° |
| 2026-05-04 13:21 | 41.16109 | 10.98093 | 29363 ft | 388 kts | 253° |
| 2026-05-04 13:21 | 41.15167 | 10.94740 | 29778 ft | 388 kts | 253° |
| 2026-05-04 13:22 | 41.14225 | 10.91382 | 30151 ft | 388 kts | 253° |
| 2026-05-04 13:22 | 41.13286 | 10.88021 | 30463 ft | 389 kts | 253° |
| 2026-05-04 13:22 | 41.12357 | 10.84690 | 30739 ft | 390 kts | 253° |
| 2026-05-04 13:22 | 41.11398 | 10.81262 | 31011 ft | 392 kts | 253° |
| 2026-05-04 13:23 | 41.10461 | 10.77917 | 31273 ft | 393 kts | 253° |
| 2026-05-04 13:23 | 41.09505 | 10.74523 | 31565 ft | 393 kts | 253° |
| 2026-05-04 13:23 | 41.08546 | 10.71138 | 31960 ft | 391 kts | 253° |
| 2026-05-04 13:23 | 41.07590 | 10.67769 | 32345 ft | 390 kts | 253° |
| 2026-05-04 13:24 | 41.06639 | 10.64411 | 32720 ft | 388 kts | 253° |
| 2026-05-04 13:24 | 41.05693 | 10.61073 | 33110 ft | 386 kts | 253° |
| 2026-05-04 13:24 | 41.04749 | 10.57746 | 33490 ft | 385 kts | 253° |
| 2026-05-04 13:25 | 41.02871 | 10.51144 | 34236 ft | 381 kts | 253° |
| 2026-05-04 13:25 | 41.01939 | 10.47861 | 34554 ft | 380 kts | 253° |
| 2026-05-04 13:25 | 41.01007 | 10.44589 | 34827 ft | 380 kts | 253° |
| 2026-05-04 13:25 | 41.00072 | 10.41313 | 35093 ft | 380 kts | 253° |
| 2026-05-04 13:26 | 40.99198 | 10.38026 | 35350 ft | 377 kts | 258° |
| 2026-05-04 13:26 | 40.98734 | 10.34630 | 35583 ft | 375 kts | 267° |
| 2026-05-04 13:26 | 40.98576 | 10.31196 | 35816 ft | 374 kts | 268° |
| 2026-05-04 13:26 | 40.98419 | 10.27760 | 36048 ft | 374 kts | 267° |
| 2026-05-04 13:27 | 40.98254 | 10.24366 | 36276 ft | 374 kts | 267° |
| 2026-05-04 13:27 | 40.98083 | 10.20936 | 36500 ft | 374 kts | 267° |
| 2026-05-04 13:27 | 40.97908 | 10.17507 | 36724 ft | 373 kts | 267° |
| 2026-05-04 13:27 | 40.97732 | 10.14081 | 36941 ft | 373 kts | 267° |
| 2026-05-04 13:28 | 40.97556 | 10.10657 | 37066 ft | 373 kts | 267° |
| 2026-05-04 13:28 | 40.97381 | 10.07244 | 37088 ft | 371 kts | 267° |
| 2026-05-04 13:28 | 40.97038 | 10.00453 | 37085 ft | 369 kts | 267° |
| 2026-05-04 13:29 | 40.96695 | 9.93680 | 37079 ft | 369 kts | 267° |
| 2026-05-04 13:29 | 40.96340 | 9.86905 | 37074 ft | 369 kts | 266° |
| 2026-05-04 13:30 | 40.95975 | 9.80148 | 37069 ft | 368 kts | 266° |
| 2026-05-04 13:30 | 40.95608 | 9.73385 | 37072 ft | 368 kts | 266° |
| 2026-05-04 13:31 | 40.95247 | 9.66620 | 37073 ft | 368 kts | 266° |
| 2026-05-04 13:31 | 40.94881 | 9.59865 | 37073 ft | 368 kts | 266° |
| 2026-05-04 13:32 | 40.94509 | 9.53124 | 37074 ft | 367 kts | 266° |
| 2026-05-04 13:32 | 40.94131 | 9.46433 | 37074 ft | 367 kts | 266° |
| 2026-05-04 13:33 | 40.93755 | 9.39705 | 37077 ft | 366 kts | 266° |
| 2026-05-04 13:33 | 40.93374 | 9.32994 | 37079 ft | 366 kts | 266° |
| 2026-05-04 13:34 | 40.92986 | 9.26285 | 37072 ft | 364 kts | 265° |
| 2026-05-04 13:34 | 40.92595 | 9.19594 | 37080 ft | 365 kts | 265° |
| 2026-05-04 13:35 | 40.92010 | 9.09622 | 37074 ft | 364 kts | 265° |
| 2026-05-04 13:36 | 40.91616 | 9.02958 | 37065 ft | 363 kts | 265° |
| 2026-05-04 13:36 | 40.91211 | 8.96296 | 37068 ft | 363 kts | 265° |
| 2026-05-04 13:37 | 40.90802 | 8.89685 | 37067 ft | 363 kts | 265° |
| 2026-05-04 13:37 | 40.90396 | 8.83025 | 37065 ft | 363 kts | 265° |
| 2026-05-04 13:38 | 40.89985 | 8.76372 | 37063 ft | 363 kts | 264° |
| 2026-05-04 13:38 | 40.89567 | 8.69716 | 37060 ft | 363 kts | 264° |
| 2026-05-04 13:39 | 40.89147 | 8.63059 | 37061 ft | 363 kts | 264° |
| 2026-05-04 13:39 | 40.88721 | 8.56403 | 37056 ft | 363 kts | 264° |
| 2026-05-04 13:40 | 40.88293 | 8.49750 | 37058 ft | 363 kts | 264° |
| 2026-05-04 13:40 | 40.87861 | 8.43088 | 37053 ft | 364 kts | 264° |
| 2026-05-04 13:41 | 40.87426 | 8.36430 | 37054 ft | 364 kts | 264° |
| 2026-05-04 13:41 | 40.86992 | 8.29760 | 37053 ft | 364 kts | 264° |
| 2026-05-04 13:42 | 40.86323 | 8.19789 | 37052 ft | 365 kts | 263° |
| 2026-05-04 13:42 | 40.85863 | 8.13111 | 37054 ft | 365 kts | 263° |
| 2026-05-04 13:43 | 40.85931 | 8.06394 | 37050 ft | 367 kts | 271° |
| 2026-05-04 13:43 | 40.86254 | 7.99664 | 37047 ft | 367 kts | 271° |
| 2026-05-04 13:44 | 40.86669 | 7.92931 | 37036 ft | 368 kts | 272° |
| 2026-05-04 13:44 | 40.87165 | 7.86197 | 37037 ft | 368 kts | 272° |
| 2026-05-04 13:45 | 40.87654 | 7.79462 | 37034 ft | 369 kts | 272° |
| 2026-05-04 13:45 | 40.88116 | 7.72709 | 37031 ft | 369 kts | 272° |
| 2026-05-04 13:46 | 40.88568 | 7.65958 | 37032 ft | 369 kts | 272° |
| 2026-05-04 13:46 | 40.89017 | 7.59232 | 37028 ft | 369 kts | 272° |
| 2026-05-04 13:47 | 40.89465 | 7.52470 | 37033 ft | 370 kts | 272° |
| 2026-05-04 13:47 | 40.89907 | 7.45687 | 37033 ft | 370 kts | 271° |
| 2026-05-04 13:48 | 40.90340 | 7.38992 | 37033 ft | 370 kts | 271° |
| 2026-05-04 13:48 | 40.90777 | 7.32209 | 37033 ft | 370 kts | 271° |
| 2026-05-04 13:49 | 40.91217 | 7.25423 | 37033 ft | 370 kts | 271° |
| 2026-05-04 13:49 | 40.91645 | 7.18641 | 37033 ft | 370 kts | 271° |
| 2026-05-04 13:50 | 40.92063 | 7.11856 | 37029 ft | 370 kts | 271° |
| 2026-05-04 13:50 | 40.92482 | 7.05066 | 37025 ft | 370 kts | 271° |
| 2026-05-04 13:51 | 40.92901 | 6.98277 | 37021 ft | 371 kts | 271° |
| 2026-05-04 13:51 | 40.93312 | 6.91484 | 37017 ft | 371 kts | 271° |
| 2026-05-04 13:52 | 40.93921 | 6.81329 | 37015 ft | 371 kts | 270° |
| 2026-05-04 13:53 | 40.94328 | 6.74527 | 37013 ft | 371 kts | 270° |
| 2026-05-04 13:53 | 40.94732 | 6.67718 | 37012 ft | 371 kts | 270° |
| 2026-05-04 13:54 | 40.95321 | 6.57498 | 37002 ft | 372 kts | 270° |
| 2026-05-04 13:55 | 40.95900 | 6.47260 | 37001 ft | 372 kts | 270° |
| 2026-05-04 13:55 | 40.96474 | 6.37049 | 36996 ft | 373 kts | 270° |
| 2026-05-04 13:56 | 40.96854 | 6.30209 | 36992 ft | 373 kts | 270° |
| 2026-05-04 13:57 | 40.97422 | 6.19943 | 36992 ft | 373 kts | 270° |
| 2026-05-04 13:58 | 40.98148 | 6.06215 | 36979 ft | 374 kts | 269° |
| 2026-05-04 13:58 | 40.98692 | 5.95892 | 36986 ft | 375 kts | 269° |
| 2026-05-04 13:59 | 40.99051 | 5.89002 | 36983 ft | 375 kts | 269° |
| 2026-05-04 14:00 | 40.99574 | 5.78648 | 36979 ft | 376 kts | 269° |
| 2026-05-04 14:00 | 41.00093 | 5.68321 | 36981 ft | 376 kts | 269° |
| 2026-05-04 14:01 | 41.00438 | 5.61400 | 36983 ft | 377 kts | 269° |
| 2026-05-04 14:02 | 41.00948 | 5.51015 | 36981 ft | 377 kts | 269° |
| 2026-05-04 14:02 | 41.01273 | 5.44090 | 36979 ft | 377 kts | 268° |
| 2026-05-04 14:03 | 41.01603 | 5.37162 | 36977 ft | 377 kts | 269° |
| 2026-05-04 14:03 | 41.01964 | 5.30227 | 36979 ft | 378 kts | 269° |
| 2026-05-04 14:04 | 41.02522 | 5.19810 | 36971 ft | 378 kts | 269° |
| 2026-05-04 14:04 | 41.02880 | 5.12855 | 36973 ft | 379 kts | 269° |
| 2026-05-04 14:05 | 41.03406 | 5.02398 | 36969 ft | 380 kts | 269° |
| 2026-05-04 14:06 | 41.03750 | 4.95425 | 36970 ft | 379 kts | 268° |
| 2026-05-04 14:06 | 41.04094 | 4.88449 | 36962 ft | 380 kts | 268° |
| 2026-05-04 14:06 | 41.04262 | 4.84999 | 36840 ft | 382 kts | 268° |
| 2026-05-04 14:07 | 41.04431 | 4.81487 | 36283 ft | 381 kts | 268° |
| 2026-05-04 14:07 | 41.04602 | 4.77998 | 35777 ft | 378 kts | 268° |
| 2026-05-04 14:07 | 41.04841 | 4.74538 | 35302 ft | 376 kts | 270° |
| 2026-05-04 14:07 | 41.05170 | 4.71114 | 34841 ft | 374 kts | 271° |
| 2026-05-04 14:08 | 41.05546 | 4.67719 | 34388 ft | 371 kts | 271° |
| 2026-05-04 14:08 | 41.05937 | 4.64362 | 33947 ft | 367 kts | 271° |
| 2026-05-04 14:08 | 41.06197 | 4.62157 | 33611 ft | 365 kts | 271° |
| 2026-05-04 14:08 | 41.06584 | 4.58852 | 33099 ft | 362 kts | 271° |
| 2026-05-04 14:09 | 41.07321 | 4.52305 | 32124 ft | 356 kts | 271° |
| 2026-05-04 14:09 | 41.07674 | 4.49070 | 31634 ft | 354 kts | 271° |
| 2026-05-04 14:10 | 41.08361 | 4.42658 | 30667 ft | 349 kts | 270° |
| 2026-05-04 14:10 | 41.08697 | 4.39479 | 30195 ft | 347 kts | 270° |
| 2026-05-04 14:10 | 41.09029 | 4.36322 | 29680 ft | 345 kts | 271° |
| 2026-05-04 14:10 | 41.09360 | 4.33178 | 29133 ft | 343 kts | 271° |
| 2026-05-04 14:11 | 41.09691 | 4.30057 | 28598 ft | 341 kts | 271° |
| 2026-05-04 14:11 | 41.10346 | 4.23855 | 27560 ft | 338 kts | 272° |
| 2026-05-04 14:11 | 41.10668 | 4.20775 | 27053 ft | 336 kts | 272° |
| 2026-05-04 14:12 | 41.10983 | 4.17747 | 26562 ft | 335 kts | 272° |
| 2026-05-04 14:12 | 41.11300 | 4.14693 | 26081 ft | 334 kts | 272° |
| 2026-05-04 14:12 | 41.11932 | 4.08628 | 25155 ft | 331 kts | 273° |
| 2026-05-04 14:13 | 41.12247 | 4.05611 | 24705 ft | 329 kts | 273° |
| 2026-05-04 14:13 | 41.12558 | 4.02615 | 24266 ft | 328 kts | 274° |
| 2026-05-04 14:13 | 41.12867 | 3.99628 | 23832 ft | 326 kts | 274° |
| 2026-05-04 14:13 | 41.13176 | 3.96618 | 22929 ft | 336 kts | 274° |
| 2026-05-04 14:14 | 41.13489 | 3.93511 | 21914 ft | 349 kts | 274° |
| 2026-05-04 14:14 | 41.14140 | 3.87085 | 20686 ft | 352 kts | 275° |
| 2026-05-04 14:14 | 41.14465 | 3.83872 | 20174 ft | 350 kts | 275° |
| 2026-05-04 14:15 | 41.15112 | 3.77468 | 19941 ft | 351 kts | 275° |
| 2026-05-04 14:15 | 41.15764 | 3.71041 | 19913 ft | 351 kts | 275° |
| 2026-05-04 14:16 | 41.16404 | 3.64683 | 18999 ft | 346 kts | 275° |
| 2026-05-04 14:16 | 41.16721 | 3.61523 | 18547 ft | 345 kts | 275° |
| 2026-05-04 14:17 | 41.17351 | 3.55239 | 17554 ft | 342 kts | 275° |
| 2026-05-04 14:17 | 41.17661 | 3.52112 | 17069 ft | 341 kts | 274° |
| 2026-05-04 14:17 | 41.18273 | 3.45906 | 16123 ft | 338 kts | 274° |
| 2026-05-04 14:18 | 41.18573 | 3.42822 | 15657 ft | 336 kts | 274° |
| 2026-05-04 14:18 | 41.19174 | 3.36684 | 14752 ft | 334 kts | 274° |
| 2026-05-04 14:19 | 41.19765 | 3.30626 | 13889 ft | 332 kts | 273° |
| 2026-05-04 14:19 | 41.20060 | 3.27549 | 13415 ft | 331 kts | 273° |
| 2026-05-04 14:19 | 41.20347 | 3.24568 | 12963 ft | 329 kts | 273° |
| 2026-05-04 14:19 | 41.20635 | 3.21563 | 12509 ft | 327 kts | 273° |
| 2026-05-04 14:20 | 41.20921 | 3.18578 | 12064 ft | 325 kts | 274° |
| 2026-05-04 14:20 | 41.21206 | 3.15602 | 11621 ft | 324 kts | 273° |
| 2026-05-04 14:20 | 41.21476 | 3.12645 | 11187 ft | 322 kts | 273° |
| 2026-05-04 14:21 | 41.21992 | 3.06772 | 10314 ft | 319 kts | 273° |
| 2026-05-04 14:21 | 41.22245 | 3.03854 | 9986 ft | 317 kts | 273° |
| 2026-05-04 14:21 | 41.22496 | 3.00938 | 9927 ft | 318 kts | 273° |
| 2026-05-04 14:21 | 41.22747 | 2.98032 | 9927 ft | 310 kts | 273° |
| 2026-05-04 14:22 | 41.22992 | 2.95259 | 9932 ft | 294 kts | 273° |
| 2026-05-04 14:22 | 41.23228 | 2.92606 | 9937 ft | 287 kts | 273° |
| 2026-05-04 14:22 | 41.23457 | 2.89982 | 9937 ft | 285 kts | 272° |
| 2026-05-04 14:22 | 41.23684 | 2.87371 | 9936 ft | 285 kts | 272° |
| 2026-05-04 14:23 | 41.24133 | 2.82140 | 9939 ft | 285 kts | 272° |
| 2026-05-04 14:23 | 41.24355 | 2.79568 | 9941 ft | 284 kts | 272° |
| 2026-05-04 14:23 | 41.24580 | 2.76958 | 9941 ft | 284 kts | 272° |
| 2026-05-04 14:24 | 41.24802 | 2.74347 | 9941 ft | 284 kts | 272° |
| 2026-05-04 14:24 | 41.25021 | 2.71743 | 9939 ft | 284 kts | 272° |
| 2026-05-04 14:24 | 41.25243 | 2.69136 | 9936 ft | 284 kts | 272° |
| 2026-05-04 14:24 | 41.25457 | 2.66535 | 9782 ft | 281 kts | 270° |
| 2026-05-04 14:25 | 41.25428 | 2.63957 | 9379 ft | 278 kts | 264° |
| 2026-05-04 14:25 | 41.25267 | 2.58857 | 8628 ft | 275 kts | 264° |
| 2026-05-04 14:25 | 41.25189 | 2.56329 | 8245 ft | 273 kts | 264° |
| 2026-05-04 14:26 | 41.25113 | 2.53815 | 7971 ft | 271 kts | 264° |
| 2026-05-04 14:26 | 41.25036 | 2.51317 | 7939 ft | 267 kts | 264° |
| 2026-05-04 14:26 | 41.24961 | 2.48926 | 7944 ft | 251 kts | 264° |
| 2026-05-04 14:26 | 41.24893 | 2.46662 | 7949 ft | 241 kts | 264° |
| 2026-05-04 14:27 | 41.25015 | 2.44455 | 7951 ft | 242 kts | 282° |
| 2026-05-04 14:27 | 41.25793 | 2.42449 | 7956 ft | 250 kts | 307° |
| 2026-05-04 14:27 | 41.27178 | 2.41018 | 7959 ft | 257 kts | 331° |
| 2026-05-04 14:27 | 41.28807 | 2.40040 | 7832 ft | 256 kts | 333° |
| 2026-05-04 14:28 | 41.30511 | 2.39368 | 7528 ft | 259 kts | 356° |
| 2026-05-04 14:28 | 41.32259 | 2.39869 | 7250 ft | 261 kts | 29° |
| 2026-05-04 14:28 | 41.33547 | 2.41471 | 6972 ft | 258 kts | 61° |
| 2026-05-04 14:28 | 41.34309 | 2.43594 | 6762 ft | 251 kts | 68° |
| 2026-05-04 14:29 | 41.35709 | 2.47707 | 6511 ft | 237 kts | 68° |
| 2026-05-04 14:29 | 41.37054 | 2.51661 | 6049 ft | 233 kts | 67° |
| 2026-05-04 14:30 | 41.37957 | 2.53433 | 5809 ft | 233 kts | 42° |
| 2026-05-04 14:30 | 41.39346 | 2.54481 | 5566 ft | 230 kts | 13° |
| 2026-05-04 14:30 | 41.42313 | 2.53726 | 5061 ft | 219 kts | 319° |
| 2026-05-04 14:31 | 41.43286 | 2.52227 | 4817 ft | 213 kts | 294° |
| 2026-05-04 14:31 | 41.43503 | 2.48500 | 4328 ft | 204 kts | 248° |
| 2026-05-04 14:32 | 41.42352 | 2.45058 | 3846 ft | 203 kts | 244° |
| 2026-05-04 14:32 | 41.41775 | 2.43346 | 3596 ft | 203 kts | 244° |
| 2026-05-04 14:32 | 41.41198 | 2.41638 | 3360 ft | 202 kts | 244° |
| 2026-05-04 14:32 | 41.40621 | 2.39931 | 3099 ft | 202 kts | 244° |
| 2026-05-04 14:33 | 41.40047 | 2.38235 | 2991 ft | 202 kts | 244° |
| 2026-05-04 14:33 | 41.39468 | 2.36526 | 2977 ft | 203 kts | 244° |
| 2026-05-04 14:33 | 41.38897 | 2.34839 | 3000 ft | 203 kts | 244° |
| 2026-05-04 14:33 | 41.38317 | 2.33128 | 3001 ft | 202 kts | 244° |
| 2026-05-04 14:34 | 41.37736 | 2.31416 | 2995 ft | 202 kts | 244° |
| 2026-05-04 14:34 | 41.37177 | 2.29765 | 3010 ft | 188 kts | 244° |
| 2026-05-04 14:34 | 41.36659 | 2.28239 | 2911 ft | 174 kts | 243° |
| 2026-05-04 14:34 | 41.36180 | 2.26828 | 2726 ft | 164 kts | 243° |
| 2026-05-04 14:35 | 41.35714 | 2.25457 | 2517 ft | 160 kts | 243° |
| 2026-05-04 14:35 | 41.35254 | 2.24107 | 2293 ft | 160 kts | 243° |
| 2026-05-04 14:35 | 41.34794 | 2.22756 | 2099 ft | 160 kts | 244° |
| 2026-05-04 14:35 | 41.34335 | 2.21408 | 1875 ft | 159 kts | 243° |
| 2026-05-04 14:36 | 41.33879 | 2.20068 | 1680 ft | 158 kts | 244° |
| 2026-05-04 14:36 | 41.33424 | 2.18732 | 1471 ft | 159 kts | 243° |
| 2026-05-04 14:36 | 41.32971 | 2.17403 | 1230 ft | 153 kts | 244° |
| 2026-05-04 14:36 | 41.32543 | 2.16146 | 1033 ft | 146 kts | 242° |
| 2026-05-04 14:37 | 41.32145 | 2.14984 | 830 ft | 144 kts | 244° |
| 2026-05-04 14:37 | 41.31737 | 2.13788 | 646 ft | 142 kts | 244° |
| 2026-05-04 14:37 | 41.31350 | 2.12650 | 444 ft | 141 kts | 243° |
| 2026-05-04 14:37 | 41.30950 | 2.11480 | 252 ft | 140 kts | 244° |
| 2026-05-04 14:38 | 41.30545 | 2.10297 | 60 ft | 140 kts | 244° |
| 2026-05-04 14:38 | 41.30171 | 2.09206 | 3 ft | 100 kts | 246° |
| 2026-05-04 14:38 | 41.29992 | 2.08679 | 7 ft | 44 kts | 245° |
| 2026-05-04 14:38 | 41.29853 | 2.08353 | 7 ft | 39 kts | 227° |
| 2026-05-04 14:39 | 41.29747 | 2.08236 | 4 ft | 0 kts | 214° |
| 2026-05-04 14:39 | 41.29745 | 2.08234 | 4 ft | 3 kts | 214° |
| 2026-05-04 14:40 | 41.29591 | 2.08060 | 3 ft | 18 kts | 241° |
| 2026-05-04 14:40 | 41.29536 | 2.07906 | 3 ft | 19 kts | 246° |
| 2026-05-04 14:40 | 41.29480 | 2.07736 | 3 ft | 21 kts | 246° |
| 2026-05-04 14:40 | 41.29419 | 2.07557 | 3 ft | 22 kts | 245° |
| 2026-05-04 14:41 | 41.29352 | 2.07362 | 3 ft | 23 kts | 246° |
| 2026-05-04 14:41 | 41.29285 | 2.07164 | 3 ft | 20 kts | 245° |
| 2026-05-04 14:41 | 41.29139 | 2.07143 | 3 ft | 8 kts | 126° |
| 2026-05-04 14:42 | 41.29079 | 2.07187 | 3 ft | 0 kts | 157° |